createdAt,value
2022-08-25T00:00:42.522Z,0.00
2022-08-25T00:01:42.551Z,0.00
2022-08-25T00:03:46.619Z,0.00
2022-08-25T00:04:46.657Z,0.00
2022-08-25T00:06:50.719Z,0.00
2022-08-25T00:07:50.746Z,0.00
2022-08-25T00:09:54.821Z,0.00
2022-08-25T00:11:03.162Z,0.00
2022-08-25T00:12:58.944Z,0.00
2022-08-25T00:13:58.942Z,0.00
2022-08-25T00:16:03.050Z,0.00
2022-08-25T00:17:03.040Z,0.00
2022-08-25T00:19:07.115Z,0.00
2022-08-25T00:20:07.133Z,0.00
2022-08-25T00:22:11.190Z,0.00
2022-08-25T00:23:11.228Z,0.00
2022-08-25T00:25:04.199Z,0.00
2022-08-25T00:26:04.231Z,0.00
2022-08-25T00:28:08.707Z,0.00
2022-08-25T00:29:08.323Z,0.00
2022-08-25T00:31:12.427Z,0.00
2022-08-25T00:32:12.433Z,0.00
2022-08-25T00:34:16.490Z,0.00
2022-08-25T00:35:16.522Z,0.00
2022-08-25T00:37:20.579Z,0.00
2022-08-25T00:38:20.612Z,0.00
2022-08-25T00:40:24.774Z,0.00
2022-08-25T00:41:24.700Z,0.00
2022-08-25T00:43:28.760Z,0.00
2022-08-25T00:44:28.794Z,0.00
2022-08-25T00:46:32.918Z,0.00
2022-08-25T00:47:32.884Z,0.00
2022-08-25T00:49:36.954Z,0.00
2022-08-25T00:50:36.986Z,0.00
2022-08-25T00:52:41.041Z,0.00
2022-08-25T00:53:41.073Z,0.00
2022-08-25T00:55:34.084Z,0.00
2022-08-25T00:56:34.082Z,0.00
2022-08-25T00:58:38.143Z,0.00
2022-08-25T00:59:38.172Z,0.00
2022-08-25T01:01:42.250Z,0.00
2022-08-25T01:02:42.328Z,0.00
2022-08-25T01:04:49.264Z,0.00
2022-08-25T01:05:46.358Z,0.00
2022-08-25T01:07:50.419Z,0.00
2022-08-25T01:08:50.447Z,0.00
2022-08-25T01:10:54.506Z,0.00
2022-08-25T01:11:54.537Z,0.00
2022-08-25T01:13:58.595Z,0.00
2022-08-25T01:14:58.634Z,0.00
2022-08-25T01:17:02.689Z,0.00
2022-08-25T01:18:02.724Z,0.00
2022-08-25T01:20:06.783Z,0.00
2022-08-25T01:21:06.812Z,0.00
2022-08-25T01:23:10.890Z,0.00
2022-08-25T01:24:10.921Z,0.00
2022-08-25T01:26:15.031Z,0.00
2022-08-25T01:27:15.011Z,0.00
2022-08-25T01:29:19.072Z,0.00
2022-08-25T01:30:19.108Z,0.00
2022-08-25T01:32:23.200Z,0.00
2022-08-25T01:33:23.196Z,0.00
2022-08-25T01:35:16.274Z,0.00
2022-08-25T01:36:16.264Z,0.00
2022-08-25T01:38:20.338Z,0.00
2022-08-25T01:39:20.355Z,0.00
2022-08-25T01:41:25.464Z,0.00
2022-08-25T01:42:25.461Z,0.00
2022-08-25T01:44:29.521Z,0.00
2022-08-25T01:45:29.550Z,0.00
2022-08-25T01:47:33.610Z,0.00
2022-08-25T01:48:33.642Z,0.00
2022-08-25T01:50:37.699Z,0.00
2022-08-25T01:51:37.732Z,0.00
2022-08-25T01:53:41.835Z,0.00
2022-08-25T01:54:41.826Z,0.00
2022-08-25T01:56:45.896Z,0.00
2022-08-25T01:57:45.917Z,0.00
2022-08-25T01:59:50.014Z,0.00
2022-08-25T02:00:50.009Z,0.00
2022-08-25T02:02:55.458Z,0.00
2022-08-25T02:03:54.097Z,0.00
2022-08-25T02:05:58.164Z,0.00
2022-08-25T02:06:58.193Z,0.00
2022-08-25T02:09:02.291Z,0.00
2022-08-25T02:10:03.451Z,0.00
2022-08-25T02:12:06.381Z,0.00
2022-08-25T02:13:06.368Z,0.00
2022-08-25T02:14:59.345Z,0.00
2022-08-25T02:15:59.402Z,0.00
2022-08-25T02:18:03.438Z,0.00
2022-08-25T02:19:03.467Z,0.00
2022-08-25T02:21:07.571Z,0.00
2022-08-25T02:22:07.559Z,0.00
2022-08-25T02:24:11.616Z,0.00
2022-08-25T02:25:11.652Z,0.00
2022-08-25T02:27:15.744Z,0.00
2022-08-25T02:28:15.738Z,0.00
2022-08-25T02:30:19.832Z,0.00
2022-08-25T02:31:19.824Z,0.00
2022-08-25T02:33:23.922Z,0.00
2022-08-25T02:34:23.919Z,0.00
2022-08-25T02:36:27.976Z,0.00
2022-08-25T02:37:28.005Z,0.00
2022-08-25T02:39:32.065Z,0.00
2022-08-25T02:40:32.198Z,0.00
2022-08-25T02:42:36.155Z,0.00
2022-08-25T02:43:36.193Z,0.00
2022-08-25T02:45:29.163Z,0.00
2022-08-25T02:46:29.300Z,0.00
2022-08-25T02:48:33.258Z,0.00
2022-08-25T02:49:33.291Z,0.00
2022-08-25T02:51:37.389Z,0.00
2022-08-25T02:52:37.385Z,0.00
2022-08-25T02:54:41.452Z,0.00
2022-08-25T02:55:41.468Z,0.00
2022-08-25T02:57:45.576Z,0.00
2022-08-25T02:58:45.562Z,0.00
2022-08-25T03:00:49.648Z,0.00
2022-08-25T03:01:49.653Z,0.00
2022-08-25T03:03:53.777Z,0.00
2022-08-25T03:04:53.823Z,0.00
2022-08-25T03:06:57.846Z,0.00
2022-08-25T03:07:57.838Z,0.00
2022-08-25T03:10:01.937Z,0.00
2022-08-25T03:11:01.922Z,0.00
2022-08-25T03:13:05.980Z,0.00
2022-08-25T03:14:06.010Z,0.00
2022-08-25T03:16:10.971Z,0.00
2022-08-25T03:17:10.181Z,0.00
2022-08-25T03:19:14.161Z,0.00
2022-08-25T03:20:14.195Z,0.00
2022-08-25T03:22:18.294Z,0.00
2022-08-25T03:23:18.289Z,0.00
2022-08-25T03:25:11.308Z,0.00
2022-08-25T03:26:11.302Z,0.00
2022-08-25T03:28:15.361Z,0.00
2022-08-25T03:29:15.390Z,0.00
2022-08-25T03:31:19.517Z,0.00
2022-08-25T03:32:19.482Z,0.00
2022-08-25T03:34:23.594Z,0.00
2022-08-25T03:35:23.580Z,0.00
2022-08-25T03:37:27.655Z,0.00
2022-08-25T03:38:27.683Z,0.00
2022-08-25T03:40:31.826Z,0.00
2022-08-25T03:41:31.784Z,0.00
2022-08-25T03:43:35.836Z,0.00
2022-08-25T03:44:35.870Z,0.00
2022-08-25T03:46:39.926Z,0.00
2022-08-25T03:47:39.959Z,0.00
2022-08-25T03:49:44.021Z,4.00
2022-08-25T03:50:44.056Z,0.00
2022-08-25T03:52:48.146Z,0.00
2022-08-25T03:53:48.138Z,0.00
2022-08-25T03:55:41.127Z,4.00
2022-08-25T03:56:41.167Z,4.00
2022-08-25T03:58:45.213Z,4.00
2022-08-25T03:59:45.250Z,4.00
2022-08-25T04:01:54.018Z,4.00
2022-08-25T04:02:49.361Z,8.00
2022-08-25T04:04:53.462Z,4.00
2022-08-25T04:05:53.426Z,8.00
2022-08-25T04:07:57.516Z,8.00
2022-08-25T04:08:57.515Z,8.00
2022-08-25T04:11:01.570Z,8.00
2022-08-25T04:12:01.603Z,8.00
2022-08-25T04:14:05.660Z,12.00
2022-08-25T04:15:05.694Z,12.00
2022-08-25T04:17:09.747Z,16.00
2022-08-25T04:18:09.781Z,12.00
2022-08-25T04:20:14.145Z,12.00
2022-08-25T04:21:13.865Z,16.00
2022-08-25T04:23:17.923Z,20.00
2022-08-25T04:24:17.954Z,20.00
2022-08-25T04:26:22.012Z,20.00
2022-08-25T04:27:22.044Z,20.00
2022-08-25T04:29:26.100Z,24.00
2022-08-25T04:30:26.133Z,24.00
2022-08-25T04:32:30.226Z,24.00
2022-08-25T04:33:30.219Z,28.00
2022-08-25T04:35:23.233Z,28.00
2022-08-25T04:36:23.225Z,28.00
2022-08-25T04:38:27.281Z,28.00
2022-08-25T04:39:27.312Z,28.00
2022-08-25T04:41:31.418Z,32.00
2022-08-25T04:42:31.402Z,36.00
2022-08-25T04:44:35.461Z,36.00
2022-08-25T04:45:35.524Z,40.00
2022-08-25T04:47:39.584Z,44.00
2022-08-25T04:48:39.579Z,44.00
2022-08-25T04:50:43.637Z,44.00
2022-08-25T04:51:43.666Z,44.00
2022-08-25T04:53:47.730Z,44.00
2022-08-25T04:54:47.759Z,48.00
2022-08-25T04:56:54.475Z,52.00
2022-08-25T04:57:51.847Z,48.00
2022-08-25T04:59:55.942Z,56.00
2022-08-25T05:00:55.972Z,56.00
2022-08-25T05:02:59.993Z,60.00
2022-08-25T05:04:00.064Z,60.00
2022-08-25T05:06:04.082Z,64.00
2022-08-25T05:07:04.120Z,64.00
2022-08-25T05:09:08.209Z,64.00
2022-08-25T05:10:08.204Z,64.00
2022-08-25T05:12:12.297Z,64.00
2022-08-25T05:13:12.293Z,68.00
2022-08-25T05:15:05.667Z,68.00
2022-08-25T05:16:05.559Z,72.00
2022-08-25T05:18:09.512Z,76.00
2022-08-25T05:19:15.883Z,80.00
2022-08-25T05:21:11.442Z,84.00
2022-08-25T05:22:11.474Z,80.00
2022-08-25T05:24:13.573Z,80.00
2022-08-25T05:25:13.562Z,88.00
2022-08-25T05:27:15.621Z,92.00
2022-08-25T05:28:15.650Z,96.00
2022-08-25T05:30:17.735Z,100.00
2022-08-25T05:31:17.799Z,96.00
2022-08-25T05:33:19.808Z,92.00
2022-08-25T05:34:19.846Z,96.00
2022-08-25T05:36:21.901Z,92.00
2022-08-25T05:37:21.924Z,92.00
2022-08-25T05:39:24.055Z,88.00
2022-08-25T05:40:24.084Z,88.00
2022-08-25T05:42:26.081Z,84.00
2022-08-25T05:43:26.112Z,88.00
2022-08-25T05:44:26.153Z,84.00
2022-08-25T05:45:26.235Z,80.00
2022-08-25T05:46:26.230Z,84.00
2022-08-25T05:47:26.261Z,88.00
2022-08-25T05:48:26.297Z,92.00
2022-08-25T05:49:26.337Z,96.00
2022-08-25T05:50:26.373Z,100.00
2022-08-25T05:51:26.413Z,100.00
2022-08-25T05:52:26.448Z,92.00
2022-08-25T05:53:26.488Z,96.00
2022-08-25T05:54:26.530Z,100.00
2022-08-25T05:55:26.564Z,96.00
2022-08-25T05:56:26.601Z,100.00
2022-08-25T05:57:26.638Z,104.00
2022-08-25T05:58:26.675Z,100.00
2022-08-25T05:59:26.715Z,92.00
2022-08-25T06:00:26.750Z,100.00
2022-08-25T06:01:26.849Z,96.00
2022-08-25T06:02:26.825Z,88.00
2022-08-25T06:03:26.916Z,96.00
2022-08-25T06:04:26.900Z,100.00
2022-08-25T06:05:26.940Z,96.00
2022-08-25T06:06:26.978Z,96.00
2022-08-25T06:07:27.029Z,104.00
2022-08-25T06:08:27.051Z,100.00
2022-08-25T06:09:27.093Z,100.00
2022-08-25T06:10:27.191Z,100.00
2022-08-25T06:11:27.171Z,108.00
2022-08-25T06:12:27.203Z,112.00
2022-08-25T06:13:29.023Z,112.00
2022-08-25T06:14:27.283Z,124.00
2022-08-25T06:15:27.321Z,124.00
2022-08-25T06:16:27.392Z,124.00
2022-08-25T06:17:27.391Z,124.00
2022-08-25T06:18:27.430Z,132.00
2022-08-25T06:19:27.469Z,128.00
2022-08-25T06:20:27.504Z,116.00
2022-08-25T06:21:27.544Z,120.00
2022-08-25T06:22:27.584Z,116.00
2022-08-25T06:23:27.620Z,116.00
2022-08-25T06:24:27.659Z,120.00
2022-08-25T06:25:27.699Z,116.00
2022-08-25T06:26:27.731Z,112.00
2022-08-25T06:27:27.771Z,132.00
2022-08-25T06:28:27.807Z,132.00
2022-08-25T06:29:27.846Z,128.00
2022-08-25T06:30:28.895Z,132.00
2022-08-25T06:31:27.965Z,132.00
2022-08-25T06:32:27.957Z,136.00
2022-08-25T06:33:28.000Z,140.00
2022-08-25T06:34:28.033Z,144.00
2022-08-25T06:35:28.086Z,144.00
2022-08-25T06:36:28.108Z,144.00
2022-08-25T06:37:28.148Z,148.00
2022-08-25T06:38:28.186Z,152.00
2022-08-25T06:39:28.229Z,160.00
2022-08-25T06:40:28.311Z,172.00
2022-08-25T06:41:36.598Z,172.00
2022-08-25T06:42:28.351Z,160.00
2022-08-25T06:43:28.381Z,164.00
2022-08-25T06:44:28.413Z,176.00
2022-08-25T06:45:28.461Z,176.00
2022-08-25T06:46:35.748Z,176.00
2022-08-25T06:47:28.527Z,172.00
2022-08-25T06:48:28.567Z,176.00
2022-08-25T06:49:31.878Z,176.00
2022-08-25T06:50:28.642Z,168.00
2022-08-25T06:51:28.678Z,176.00
2022-08-25T06:52:29.578Z,176.00
2022-08-25T06:53:28.753Z,164.00
2022-08-25T06:54:28.794Z,184.00
2022-08-25T06:55:28.831Z,188.00
2022-08-25T06:56:28.925Z,180.00
2022-08-25T06:57:28.905Z,180.00
2022-08-25T06:58:28.946Z,180.00
2022-08-25T06:59:32.319Z,176.00
2022-08-25T07:00:30.290Z,168.00
2022-08-25T07:01:29.135Z,168.00
2022-08-25T07:02:29.143Z,172.00
2022-08-25T07:03:29.134Z,180.00
2022-08-25T07:04:29.173Z,176.00
2022-08-25T07:05:42.617Z,160.00
2022-08-25T07:06:29.248Z,164.00
2022-08-25T07:07:43.228Z,176.00
2022-08-25T07:08:29.324Z,192.00
2022-08-25T07:09:29.365Z,208.00
2022-08-25T07:10:29.400Z,208.00
2022-08-25T07:11:29.441Z,228.00
2022-08-25T07:12:29.491Z,252.00
2022-08-25T07:13:29.513Z,276.00
2022-08-25T07:14:29.560Z,288.00
2022-08-25T07:15:29.591Z,272.00
2022-08-25T07:16:31.095Z,284.00
2022-08-25T07:17:29.687Z,292.00
2022-08-25T07:18:29.706Z,280.00
2022-08-25T07:19:29.742Z,276.00
2022-08-25T07:20:29.781Z,300.00
2022-08-25T07:21:33.135Z,300.00
2022-08-25T07:22:29.857Z,292.00
2022-08-25T07:23:29.892Z,296.00
2022-08-25T07:24:29.932Z,300.00
2022-08-25T07:25:29.975Z,308.00
2022-08-25T07:26:38.820Z,308.00
2022-08-25T07:27:30.052Z,292.00
2022-08-25T07:28:30.084Z,268.00
2022-08-25T07:29:32.696Z,276.00
2022-08-25T07:30:30.161Z,292.00
2022-08-25T07:31:30.293Z,300.00
2022-08-25T07:32:30.238Z,332.00
2022-08-25T07:33:30.273Z,276.00
2022-08-25T07:34:30.313Z,260.00
2022-08-25T07:35:37.478Z,272.00
2022-08-25T07:36:30.395Z,248.00
2022-08-25T07:37:48.026Z,256.00
2022-08-25T07:38:30.465Z,260.00
2022-08-25T07:39:30.505Z,260.00
2022-08-25T07:40:30.672Z,264.00
2022-08-25T07:41:30.585Z,256.00
2022-08-25T07:42:30.618Z,256.00
2022-08-25T07:43:30.674Z,260.00
2022-08-25T07:44:30.698Z,292.00
2022-08-25T07:45:30.737Z,292.00
2022-08-25T07:46:30.848Z,316.00
2022-08-25T07:47:30.821Z,304.00
2022-08-25T07:48:30.848Z,308.00
2022-08-25T07:50:30.923Z,276.00
2022-08-25T07:51:30.962Z,324.00
2022-08-25T07:52:30.998Z,352.00
2022-08-25T07:53:31.036Z,380.00
2022-08-25T07:54:33.802Z,356.00
2022-08-25T07:55:31.113Z,368.00
2022-08-25T07:56:31.156Z,372.00
2022-08-25T07:57:31.196Z,376.00
2022-08-25T07:58:31.229Z,348.00
2022-08-25T07:59:39.014Z,316.00
2022-08-25T08:00:31.307Z,324.00
2022-08-25T08:01:31.389Z,276.00
2022-08-25T08:02:31.438Z,268.00
2022-08-25T08:03:45.373Z,284.00
2022-08-25T08:04:31.458Z,280.00
2022-08-25T08:05:31.495Z,284.00
2022-08-25T08:06:31.541Z,300.00
2022-08-25T08:07:42.038Z,308.00
2022-08-25T08:08:31.621Z,304.00
2022-08-25T08:09:31.648Z,308.00
2022-08-25T08:11:31.726Z,308.00
2022-08-25T08:12:31.772Z,324.00
2022-08-25T08:13:31.804Z,328.00
2022-08-25T08:14:31.841Z,320.00
2022-08-25T08:15:31.882Z,328.00
2022-08-25T08:16:31.982Z,332.00
2022-08-25T08:17:31.962Z,340.00
2022-08-25T08:18:31.996Z,360.00
2022-08-25T08:19:32.032Z,416.00
2022-08-25T08:20:32.095Z,408.00
2022-08-25T08:21:32.109Z,420.00
2022-08-25T08:22:32.153Z,480.00
2022-08-25T08:23:32.188Z,480.00
2022-08-25T08:24:44.615Z,540.00
2022-08-25T08:25:32.263Z,568.00
2022-08-25T08:26:48.543Z,560.00
2022-08-25T08:27:32.342Z,580.00
2022-08-25T08:28:32.382Z,572.00
2022-08-25T08:29:32.441Z,560.00
2022-08-25T08:30:32.458Z,632.00
2022-08-25T08:31:32.547Z,608.00
2022-08-25T08:33:05.855Z,572.00
2022-08-25T08:33:32.576Z,620.00
2022-08-25T08:34:32.613Z,640.00
2022-08-25T08:35:32.650Z,732.00
2022-08-25T08:36:32.688Z,820.00
2022-08-25T08:37:32.729Z,1028.00
2022-08-25T08:38:32.764Z,1120.00
2022-08-25T08:39:32.866Z,1080.00
2022-08-25T08:40:32.887Z,1048.00
2022-08-25T08:41:40.201Z,1016.00
2022-08-25T08:42:32.927Z,1012.00
2022-08-25T08:43:33.545Z,1016.00
2022-08-25T08:44:32.997Z,1064.00
2022-08-25T08:45:35.522Z,876.00
2022-08-25T08:46:33.107Z,960.00
2022-08-25T08:47:33.111Z,892.00
2022-08-25T08:48:33.152Z,776.00
2022-08-25T08:49:33.191Z,812.00
2022-08-25T08:50:33.436Z,876.00
2022-08-25T08:51:33.509Z,768.00
2022-08-25T08:52:33.308Z,596.00
2022-08-25T08:53:34.327Z,664.00
2022-08-25T08:54:34.217Z,736.00
2022-08-25T08:55:33.424Z,648.00
2022-08-25T08:56:33.470Z,604.00
2022-08-25T08:57:33.500Z,608.00
2022-08-25T08:58:33.541Z,756.00
2022-08-25T08:59:33.586Z,1032.00
2022-08-25T09:00:33.619Z,1140.00
2022-08-25T09:01:33.725Z,1088.00
2022-08-25T09:02:39.218Z,1012.00
2022-08-25T09:03:33.774Z,1096.00
2022-08-25T09:04:33.776Z,1068.00
2022-08-25T09:05:36.815Z,1116.00
2022-08-25T09:06:33.854Z,864.00
2022-08-25T09:07:33.897Z,748.00
2022-08-25T09:08:33.932Z,756.00
2022-08-25T09:09:35.760Z,868.00
2022-08-25T09:10:34.011Z,1020.00
2022-08-25T09:11:34.050Z,1108.00
2022-08-25T09:12:34.090Z,1020.00
2022-08-25T09:13:34.126Z,828.00
2022-08-25T09:14:34.168Z,880.00
2022-08-25T09:15:41.091Z,920.00
2022-08-25T09:16:34.657Z,948.00
2022-08-25T09:17:34.289Z,920.00
2022-08-25T09:18:37.777Z,1008.00
2022-08-25T09:19:34.364Z,996.00
2022-08-25T09:20:34.405Z,708.00
2022-08-25T09:21:34.444Z,644.00
2022-08-25T09:22:36.353Z,656.00
2022-08-25T09:23:34.533Z,740.00
2022-08-25T09:24:34.562Z,908.00
2022-08-25T09:25:52.267Z,904.00
2022-08-25T09:26:34.643Z,876.00
2022-08-25T09:27:34.697Z,1024.00
2022-08-25T09:28:34.722Z,1152.00
2022-08-25T09:29:34.761Z,1352.00
2022-08-25T09:30:34.805Z,1372.00
2022-08-25T09:31:34.857Z,1204.00
2022-08-25T09:32:34.880Z,1164.00
2022-08-25T09:33:35.582Z,1232.00
2022-08-25T09:34:34.972Z,1032.00
2022-08-25T09:35:34.998Z,960.00
2022-08-25T09:36:37.657Z,956.00
2022-08-25T09:37:35.077Z,860.00
2022-08-25T09:38:35.124Z,804.00
2022-08-25T09:39:35.159Z,732.00
2022-08-25T09:40:35.282Z,736.00
2022-08-25T09:41:35.237Z,788.00
2022-08-25T09:42:35.281Z,1176.00
2022-08-25T09:43:35.318Z,1284.00
2022-08-25T09:44:35.411Z,1232.00
2022-08-25T09:45:35.395Z,1224.00
2022-08-25T09:46:35.468Z,1392.00
2022-08-25T09:47:35.479Z,1444.00
2022-08-25T09:48:39.058Z,1528.00
2022-08-25T09:49:35.555Z,1388.00
2022-08-25T09:50:35.598Z,1396.00
2022-08-25T09:51:38.178Z,1236.00
2022-08-25T09:52:35.676Z,1228.00
2022-08-25T09:53:35.718Z,1448.00
2022-08-25T09:54:43.869Z,1240.00
2022-08-25T09:55:35.800Z,1156.00
2022-08-25T09:56:35.847Z,1292.00
2022-08-25T09:57:35.876Z,1324.00
2022-08-25T09:58:35.918Z,1160.00
2022-08-25T09:59:36.172Z,1100.00
2022-08-25T10:00:35.998Z,1100.00
2022-08-25T10:01:36.070Z,1272.00
2022-08-25T10:02:36.080Z,1420.00
2022-08-25T10:03:36.514Z,1404.00
2022-08-25T10:04:36.159Z,1388.00
2022-08-25T10:05:36.213Z,1440.00
2022-08-25T10:06:36.241Z,1480.00
2022-08-25T10:07:36.284Z,1408.00
2022-08-25T10:08:36.323Z,1344.00
2022-08-25T10:09:36.366Z,1424.00
2022-08-25T10:10:36.473Z,1116.00
2022-08-25T10:11:36.443Z,1032.00
2022-08-25T10:12:36.525Z,1016.00
2022-08-25T10:13:36.527Z,1156.00
2022-08-25T10:14:36.566Z,1528.00
2022-08-25T10:15:36.637Z,1456.00
2022-08-25T10:16:36.812Z,1408.00
2022-08-25T10:17:36.688Z,1624.00
2022-08-25T10:18:36.729Z,1572.00
2022-08-25T10:19:36.774Z,1288.00
2022-08-25T10:20:36.812Z,1360.00
2022-08-25T10:21:36.850Z,1244.00
2022-08-25T10:22:36.899Z,1316.00
2022-08-25T10:23:36.938Z,1316.00
2022-08-25T10:24:36.974Z,1324.00
2022-08-25T10:25:37.021Z,1372.00
2022-08-25T10:26:37.055Z,1484.00
2022-08-25T10:27:37.095Z,1624.00
2022-08-25T10:28:37.153Z,1680.00
2022-08-25T10:29:37.177Z,1540.00
2022-08-25T10:30:37.249Z,1568.00
2022-08-25T10:31:37.269Z,1644.00
2022-08-25T10:32:37.303Z,1512.00
2022-08-25T10:33:37.341Z,1508.00
2022-08-25T10:34:37.385Z,1424.00
2022-08-25T10:35:37.425Z,1500.00
2022-08-25T10:36:37.468Z,1256.00
2022-08-25T10:37:37.563Z,1276.00
2022-08-25T10:38:37.605Z,1236.00
2022-08-25T10:39:40.466Z,1188.00
2022-08-25T10:40:37.718Z,1312.00
2022-08-25T10:41:37.673Z,1364.00
2022-08-25T10:42:37.718Z,1280.00
2022-08-25T10:43:37.763Z,1292.00
2022-08-25T10:44:37.795Z,1460.00
2022-08-25T10:45:37.835Z,1496.00
2022-08-25T10:46:37.903Z,1428.00
2022-08-25T10:47:37.931Z,1564.00
2022-08-25T10:48:37.961Z,1668.00
2022-08-25T10:49:38.037Z,1580.00
2022-08-25T10:50:38.051Z,1484.00
2022-08-25T10:51:38.083Z,1384.00
2022-08-25T10:52:38.196Z,1228.00
2022-08-25T10:53:38.167Z,1276.00
2022-08-25T10:54:38.227Z,1272.00
2022-08-25T10:55:40.484Z,1100.00
2022-08-25T10:56:40.806Z,1016.00
2022-08-25T10:57:38.332Z,1144.00
2022-08-25T10:58:38.377Z,1516.00
2022-08-25T10:59:38.427Z,1432.00
2022-08-25T11:00:38.497Z,1412.00
2022-08-25T11:01:43.628Z,1284.00
2022-08-25T11:02:38.578Z,1012.00
2022-08-25T11:03:38.583Z,1204.00
2022-08-25T11:04:38.729Z,1488.00
2022-08-25T11:05:38.689Z,1628.00
2022-08-25T11:06:38.708Z,1692.00
2022-08-25T11:07:38.748Z,1552.00
2022-08-25T11:08:38.789Z,1568.00
2022-08-25T11:09:38.831Z,1688.00
2022-08-25T11:10:38.875Z,1448.00
2022-08-25T11:11:38.917Z,1224.00
2022-08-25T11:12:38.955Z,1148.00
2022-08-25T11:13:38.997Z,1268.00
2022-08-25T11:14:39.040Z,1500.00
2022-08-25T11:15:41.468Z,1416.00
2022-08-25T11:16:39.262Z,1452.00
2022-08-25T11:17:39.165Z,1440.00
2022-08-25T11:18:39.205Z,1504.00
2022-08-25T11:19:46.448Z,1512.00
2022-08-25T11:21:32.428Z,1624.00
2022-08-25T11:22:32.463Z,1588.00
2022-08-25T11:24:25.645Z,1680.00
2022-08-25T11:25:25.683Z,1648.00
2022-08-25T11:27:29.777Z,1468.00
2022-08-25T11:28:29.800Z,1540.00
2022-08-25T11:30:33.929Z,1508.00
2022-08-25T11:31:33.909Z,1588.00
2022-08-25T11:33:27.091Z,1564.00
2022-08-25T11:34:27.125Z,1712.00
2022-08-25T11:36:31.241Z,1580.00
2022-08-25T11:37:31.239Z,1340.00
2022-08-25T11:39:35.315Z,916.00
2022-08-25T11:40:35.352Z,920.00
2022-08-25T11:42:39.426Z,996.00
2022-08-25T11:43:40.521Z,976.00
2022-08-25T11:45:32.458Z,964.00
2022-08-25T11:46:32.518Z,1048.00
2022-08-25T11:48:36.602Z,1124.00
2022-08-25T11:49:36.611Z,1220.00
2022-08-25T11:51:40.722Z,1292.00
2022-08-25T11:52:40.761Z,1324.00
2022-08-25T11:54:33.947Z,1420.00
2022-08-25T11:55:33.981Z,1204.00
2022-08-25T11:57:27.164Z,1064.00
2022-08-25T11:58:27.202Z,1024.00
2022-08-25T12:00:20.435Z,820.00
2022-08-25T12:01:20.421Z,692.00
2022-08-25T12:03:13.606Z,752.00
2022-08-25T12:04:14.917Z,768.00
2022-08-25T12:06:06.863Z,880.00
2022-08-25T12:07:07.212Z,1064.00
2022-08-25T12:09:00.075Z,1372.00
2022-08-25T12:10:00.087Z,1356.00
2022-08-25T12:12:04.167Z,1084.00
2022-08-25T12:13:04.699Z,1120.00
2022-08-25T12:14:57.224Z,1028.00
2022-08-25T12:15:57.262Z,1132.00
2022-08-25T12:18:04.389Z,804.00
2022-08-25T12:19:01.367Z,844.00
2022-08-25T12:20:54.581Z,948.00
2022-08-25T12:21:54.588Z,972.00
2022-08-25T12:23:58.676Z,868.00
2022-08-25T12:24:58.713Z,816.00
2022-08-25T12:26:51.976Z,808.00
2022-08-25T12:27:51.935Z,824.00
2022-08-25T12:29:45.346Z,940.00
2022-08-25T12:30:45.378Z,956.00
2022-08-25T12:32:38.570Z,976.00
2022-08-25T12:33:38.566Z,868.00
2022-08-25T12:35:31.567Z,896.00
2022-08-25T12:36:31.602Z,808.00
2022-08-25T12:38:38.798Z,812.00
2022-08-25T12:39:35.730Z,796.00
2022-08-25T12:41:39.840Z,780.00
2022-08-25T12:42:39.845Z,708.00
2022-08-25T12:44:44.078Z,880.00
2022-08-25T12:45:44.029Z,884.00
2022-08-25T12:47:38.385Z,904.00
2022-08-25T12:48:37.268Z,900.00
2022-08-25T12:50:30.491Z,936.00
2022-08-25T12:51:30.490Z,984.00
2022-08-25T12:53:23.679Z,1188.00
2022-08-25T12:54:23.713Z,1236.00
2022-08-25T12:56:16.901Z,1148.00
2022-08-25T12:57:16.935Z,1100.00
2022-08-25T12:59:10.160Z,968.00
2022-08-25T13:00:10.156Z,848.00
2022-08-25T13:02:03.551Z,892.00
2022-08-25T13:03:03.719Z,856.00
2022-08-25T13:04:56.449Z,884.00
2022-08-25T13:05:56.443Z,920.00
2022-08-25T13:07:49.663Z,1036.00
2022-08-25T13:08:49.662Z,1028.00
2022-08-25T13:10:53.751Z,1124.00
2022-08-25T13:11:53.786Z,1080.00
2022-08-25T13:13:47.007Z,1024.00
2022-08-25T13:14:47.635Z,960.00
2022-08-25T13:16:40.315Z,1000.00
2022-08-25T13:17:40.284Z,992.00
2022-08-25T13:19:35.242Z,952.00
2022-08-25T13:20:33.548Z,940.00
2022-08-25T13:22:37.632Z,924.00
2022-08-25T13:23:37.667Z,924.00
2022-08-25T13:25:32.269Z,936.00
2022-08-25T13:26:30.694Z,928.00
2022-08-25T13:28:23.698Z,784.00
2022-08-25T13:29:23.735Z,852.00
2022-08-25T13:31:27.831Z,624.00
2022-08-25T13:32:31.931Z,732.00
2022-08-25T13:34:34.840Z,580.00
2022-08-25T13:35:32.430Z,556.00
2022-08-25T13:37:25.159Z,396.00
2022-08-25T13:38:25.187Z,460.00
2022-08-25T13:40:29.348Z,680.00
2022-08-25T13:41:30.355Z,644.00
2022-08-25T13:43:33.390Z,620.00
2022-08-25T13:44:33.428Z,688.00
2022-08-25T13:46:26.704Z,868.00
2022-08-25T13:47:26.650Z,904.00
2022-08-25T13:49:19.835Z,936.00
2022-08-25T13:50:19.910Z,944.00
2022-08-25T13:52:23.011Z,908.00
2022-08-25T13:53:23.048Z,852.00
2022-08-25T13:55:15.182Z,772.00
2022-08-25T13:58:12.679Z,796.00
2022-08-25T13:59:09.881Z,764.00
2022-08-25T14:01:01.793Z,680.00
2022-08-25T14:02:01.807Z,668.00
2022-08-25T14:04:04.909Z,564.00
2022-08-25T14:05:04.896Z,368.00
2022-08-25T14:06:58.088Z,456.00
2022-08-25T14:08:15.662Z,676.00
2022-08-25T14:09:51.358Z,688.00
2022-08-25T14:10:51.353Z,652.00
2022-08-25T14:12:55.431Z,652.00
2022-08-25T14:13:55.457Z,680.00
2022-08-25T14:15:57.662Z,672.00
2022-08-25T14:16:57.762Z,640.00
2022-08-25T14:19:01.689Z,576.00
2022-08-25T14:20:01.737Z,544.00
2022-08-25T14:21:56.581Z,656.00
2022-08-25T14:22:54.005Z,712.00
2022-08-25T14:24:46.178Z,728.00
2022-08-25T14:25:46.217Z,720.00
2022-08-25T14:28:06.738Z,744.00
2022-08-25T14:28:48.659Z,744.00
2022-08-25T14:30:40.950Z,752.00
2022-08-25T14:31:40.970Z,740.00
2022-08-25T14:33:43.268Z,640.00
2022-08-25T14:34:43.156Z,624.00
2022-08-25T14:36:45.223Z,628.00
2022-08-25T14:37:45.259Z,592.00
2022-08-25T14:39:47.513Z,520.00
2022-08-25T14:40:47.519Z,488.00
2022-08-25T14:42:49.608Z,428.00
2022-08-25T14:43:49.644Z,408.00
2022-08-25T14:45:53.810Z,420.00
2022-08-25T14:46:53.777Z,472.00
2022-08-25T14:48:57.857Z,532.00
2022-08-25T14:49:57.900Z,532.00
2022-08-25T14:51:51.080Z,528.00
2022-08-25T14:52:52.025Z,524.00
2022-08-25T14:54:55.232Z,532.00
2022-08-25T14:55:58.874Z,528.00
2022-08-25T14:57:48.458Z,528.00
2022-08-25T14:58:54.057Z,520.00
2022-08-25T15:00:41.699Z,512.00
2022-08-25T15:01:41.684Z,504.00
2022-08-25T15:03:34.937Z,500.00
2022-08-25T15:06:28.099Z,484.00
2022-08-25T15:07:28.140Z,488.00
2022-08-25T15:09:33.762Z,468.00
2022-08-25T15:10:32.259Z,428.00
2022-08-25T15:12:45.970Z,492.00
2022-08-25T15:13:25.480Z,488.00
2022-08-25T15:15:18.481Z,540.00
2022-08-25T15:16:20.851Z,560.00
2022-08-25T15:18:11.701Z,592.00
2022-08-25T15:19:11.748Z,580.00
2022-08-25T15:21:04.928Z,540.00
2022-08-25T15:22:04.965Z,544.00
2022-08-25T15:23:58.194Z,508.00
2022-08-25T15:24:58.191Z,512.00
2022-08-25T15:27:02.300Z,508.00
2022-08-25T15:28:02.400Z,512.00
2022-08-25T15:29:55.557Z,472.00
2022-08-25T15:30:55.558Z,456.00
2022-08-25T15:32:48.823Z,428.00
2022-08-25T15:33:48.779Z,420.00
2022-08-25T15:35:41.813Z,412.00
2022-08-25T15:36:41.843Z,412.00
2022-08-25T15:38:45.932Z,404.00
2022-08-25T15:39:46.055Z,400.00
2022-08-25T15:41:39.152Z,396.00
2022-08-25T15:42:42.835Z,400.00
2022-08-25T15:44:43.331Z,412.00
2022-08-25T15:45:43.325Z,408.00
2022-08-25T15:47:36.549Z,424.00
2022-08-25T15:48:36.550Z,452.00
2022-08-25T15:50:29.739Z,472.00
2022-08-25T15:51:29.776Z,480.00
2022-08-25T15:53:22.960Z,456.00
2022-08-25T15:54:23.000Z,440.00
2022-08-25T15:56:16.181Z,388.00
2022-08-25T15:57:24.117Z,364.00
2022-08-25T15:59:09.415Z,344.00
2022-08-25T16:00:09.954Z,344.00
2022-08-25T16:02:02.718Z,316.00
2022-08-25T16:03:02.721Z,312.00
2022-08-25T16:04:55.666Z,316.00
2022-08-25T16:05:55.701Z,312.00
2022-08-25T16:07:59.784Z,308.00
2022-08-25T16:08:59.820Z,304.00
2022-08-25T16:11:03.962Z,300.00
2022-08-25T16:12:08.435Z,300.00
2022-08-25T16:13:57.151Z,296.00